sensor_id;sensor_type;location;lat;lon;timestamp;pressure;altitude;pressure_sealevel;temperature;humidity
65553;BME280;52465;51.560;14.368;2023-05-15T00:00:34;99874.34;;;17.42;56.24
65553;BME280;52465;51.560;14.368;2023-05-15T00:03:01;99870.88;;;17.48;56.15
65553;BME280;52465;51.560;14.368;2023-05-15T00:05:26;99883.47;;;17.53;55.97
65553;BME280;52465;51.560;14.368;2023-05-15T00:07:52;99867.63;;;17.46;56.34
65553;BME280;52465;51.560;14.368;2023-05-15T00:10:17;99866.78;;;17.52;56.20
65553;BME280;52465;51.560;14.368;2023-05-15T00:12:43;99869.25;;;17.47;56.25
65553;BME280;52465;51.560;14.368;2023-05-15T00:15:11;99858.66;;;17.47;56.07
65553;BME280;52465;51.560;14.368;2023-05-15T00:17:37;99836.72;;;17.33;56.07
65553;BME280;52465;51.560;14.368;2023-05-15T00:20:03;99860.28;;;17.48;56.19
65553;BME280;52465;51.560;14.368;2023-05-15T00:22:29;99853.38;;;17.47;56.20
65553;BME280;52465;51.560;14.368;2023-05-15T00:24:54;99838.94;;;17.43;56.41
65553;BME280;52465;51.560;14.368;2023-05-15T00:27:20;99829.41;;;17.35;56.40
65553;BME280;52465;51.560;14.368;2023-05-15T00:30:04;99849.09;;;17.46;56.33
65553;BME280;52465;51.560;14.368;2023-05-15T00:32:30;99847.44;;;17.45;56.01
65553;BME280;52465;51.560;14.368;2023-05-15T00:34:55;99849.91;;;17.47;56.26
65553;BME280;52465;51.560;14.368;2023-05-15T00:37:22;99854.41;;;17.46;56.24
65553;BME280;52465;51.560;14.368;2023-05-15T00:39:47;99839.56;;;17.38;56.53
65553;BME280;52465;51.560;14.368;2023-05-15T00:42:14;99835.06;;;17.39;55.99
65553;BME280;52465;51.560;14.368;2023-05-15T00:44:40;99834.44;;;17.43;56.32
65553;BME280;52465;51.560;14.368;2023-05-15T00:47:09;99821.06;;;17.32;56.32
65553;BME280;52465;51.560;14.368;2023-05-15T00:49:36;99827.53;;;17.42;56.24
65553;BME280;52465;51.560;14.368;2023-05-15T00:52:02;99837.31;;;17.42;56.25
65553;BME280;52465;51.560;14.368;2023-05-15T00:54:28;99830.41;;;17.41;56.47
65553;BME280;52465;51.560;14.368;2023-05-15T00:56:55;99829.59;;;17.40;56.63
65553;BME280;52465;51.560;14.368;2023-05-15T00:59:24;99826.53;;;17.37;56.52
65553;BME280;52465;51.560;14.368;2023-05-15T01:01:50;99831.44;;;17.40;56.23
65553;BME280;52465;51.560;14.368;2023-05-15T01:04:15;99807.25;;;17.30;56.33
65553;BME280;52465;51.560;14.368;2023-05-15T01:06:59;99819.22;;;17.32;56.34
65553;BME280;52465;51.560;14.368;2023-05-15T01:09:28;99820.22;;;17.38;56.45
65553;BME280;52465;51.560;14.368;2023-05-15T01:11:58;99814.13;;;17.37;56.55
65553;BME280;52465;51.560;14.368;2023-05-15T01:14:24;99819.63;;;17.36;56.40
65553;BME280;52465;51.560;14.368;2023-05-15T01:16:50;99819.41;;;17.37;56.26
65553;BME280;52465;51.560;14.368;2023-05-15T01:19:18;99796.50;;;17.25;56.53
65553;BME280;52465;51.560;14.368;2023-05-15T01:27:35;99801.38;;;17.21;56.64
65553;BME280;52465;51.560;14.368;2023-05-15T01:33:33;99813.56;;;17.29;56.42
65553;BME280;52465;51.560;14.368;2023-05-15T01:39:02;99803.41;;;17.26;56.54
65553;BME280;52465;51.560;14.368;2023-05-15T01:41:34;99812.53;;;17.30;56.50
65553;BME280;52465;51.560;14.368;2023-05-15T01:44:08;99815.19;;;17.30;56.62
65553;BME280;52465;51.560;14.368;2023-05-15T01:46:38;99807.88;;;17.25;56.40
65553;BME280;52465;51.560;14.368;2023-05-15T01:49:08;99812.72;;;17.28;56.39
65553;BME280;52465;51.560;14.368;2023-05-15T01:51:36;99806.63;;;17.28;56.53
65553;BME280;52465;51.560;14.368;2023-05-15T01:54:02;99805.00;;;17.27;56.53
65553;BME280;52465;51.560;14.368;2023-05-15T01:56:28;99778.69;;;17.07;56.45
65553;BME280;52465;51.560;14.368;2023-05-15T01:58:54;99809.28;;;17.28;56.51
65553;BME280;52465;51.560;14.368;2023-05-15T02:01:21;99820.66;;;17.28;56.57
65553;BME280;52465;51.560;14.368;2023-05-15T02:03:47;99812.72;;;17.28;56.47
65553;BME280;52465;51.560;14.368;2023-05-15T02:06:14;99810.53;;;17.25;56.62
65553;BME280;52465;51.560;14.368;2023-05-15T02:08:41;99790.00;;;17.21;56.94
65553;BME280;52465;51.560;14.368;2023-05-15T02:11:07;99806.84;;;17.26;56.62
65553;BME280;52465;51.560;14.368;2023-05-15T02:13:33;99805.00;;;17.27;56.57
65553;BME280;52465;51.560;14.368;2023-05-15T02:15:59;99788.38;;;17.19;56.48
65553;BME280;52465;51.560;14.368;2023-05-15T02:18:25;99798.91;;;17.26;56.89
65553;BME280;52465;51.560;14.368;2023-05-15T02:20:52;99799.13;;;17.25;56.64
65553;BME280;52465;51.560;14.368;2023-05-15T02:23:18;99795.69;;;17.24;56.61
65553;BME280;52465;51.560;14.368;2023-05-15T02:29:02;99787.94;;;17.23;56.64
65553;BME280;52465;51.560;14.368;2023-05-15T02:31:51;99788.97;;;17.22;56.65
65553;BME280;52465;51.560;14.368;2023-05-15T02:34:27;99784.47;;;17.22;56.71
65553;BME280;52465;51.560;14.368;2023-05-15T02:36:57;99770.88;;;17.18;56.41
65553;BME280;52465;51.560;14.368;2023-05-15T02:39:25;99764.78;;;17.18;56.72
65553;BME280;52465;51.560;14.368;2023-05-15T02:41:57;99765.59;;;17.18;56.70
65553;BME280;52465;51.560;14.368;2023-05-15T02:44:24;99754.44;;;17.10;56.67
65553;BME280;52465;51.560;14.368;2023-05-15T02:46:51;99754.41;;;17.16;56.69
65553;BME280;52465;51.560;14.368;2023-05-15T02:49:17;99761.34;;;17.17;56.82
65553;BME280;52465;51.560;14.368;2023-05-15T02:51:42;99740.00;;;17.12;56.65
65553;BME280;52465;51.560;14.368;2023-05-15T02:54:08;99748.28;;;17.16;56.63
65553;BME280;52465;51.560;14.368;2023-05-15T02:56:34;99745.88;;;17.14;56.69
65553;BME280;52465;51.560;14.368;2023-05-15T02:58:59;99743.81;;;17.16;56.87
65553;BME280;52465;51.560;14.368;2023-05-15T03:01:25;99713.00;;;16.97;56.79
65553;BME280;52465;51.560;14.368;2023-05-15T03:03:50;99727.97;;;17.10;56.92
65553;BME280;52465;51.560;14.368;2023-05-15T03:06:17;99721.94;;;17.03;56.84
65553;BME280;52465;51.560;14.368;2023-05-15T03:08:43;99737.94;;;17.14;57.13
65553;BME280;52465;51.560;14.368;2023-05-15T03:11:08;99730.00;;;17.14;56.79
65553;BME280;52465;51.560;14.368;2023-05-15T03:13:34;99716.81;;;17.08;56.72
65553;BME280;52465;51.560;14.368;2023-05-15T03:16:00;99733.66;;;17.13;56.59
65553;BME280;52465;51.560;14.368;2023-05-15T03:18:25;99726.75;;;17.12;56.83
65553;BME280;52465;51.560;14.368;2023-05-15T03:20:51;99726.16;;;17.10;56.90
65553;BME280;52465;51.560;14.368;2023-05-15T03:23:17;99719.06;;;17.04;57.09
65553;BME280;52465;51.560;14.368;2023-05-15T03:25:43;99732.88;;;17.13;56.97
65553;BME280;52465;51.560;14.368;2023-05-15T03:28:08;99723.13;;;17.07;56.80
65553;BME280;52465;51.560;14.368;2023-05-15T03:30:34;99726.16;;;17.10;56.95
65553;BME280;52465;51.560;14.368;2023-05-15T03:32:59;99709.50;;;17.03;56.88
65553;BME280;52465;51.560;14.368;2023-05-15T03:35:28;99725.13;;;17.11;56.89
65553;BME280;52465;51.560;14.368;2023-05-15T03:37:54;99711.13;;;17.04;56.95
65553;BME280;52465;51.560;14.368;2023-05-15T03:40:19;99718.66;;;17.07;57.07
65553;BME280;52465;51.560;14.368;2023-05-15T03:42:44;99710.31;;;17.04;57.03
65553;BME280;52465;51.560;14.368;2023-05-15T03:45:10;99716.00;;;17.07;56.91
65553;BME280;52465;51.560;14.368;2023-05-15T03:47:35;99713.56;;;17.06;56.87
65553;BME280;52465;51.560;14.368;2023-05-15T03:50:01;99709.69;;;17.08;56.96
65553;BME280;52465;51.560;14.368;2023-05-15T03:52:26;99712.75;;;17.05;56.91
65553;BME280;52465;51.560;14.368;2023-05-15T03:54:52;99704.22;;;17.03;57.11
65553;BME280;52465;51.560;14.368;2023-05-15T03:57:17;99698.94;;;17.03;56.99
65553;BME280;52465;51.560;14.368;2023-05-15T03:59:42;99710.72;;;17.07;57.07
65553;BME280;52465;51.560;14.368;2023-05-15T04:02:09;99705.03;;;17.04;56.89
65553;BME280;52465;51.560;14.368;2023-05-15T04:04:34;99709.28;;;17.05;57.02
65553;BME280;52465;51.560;14.368;2023-05-15T04:07:01;99705.84;;;17.04;56.94
65553;BME280;52465;51.560;14.368;2023-05-15T04:09:26;99705.84;;;17.04;57.01
65553;BME280;52465;51.560;14.368;2023-05-15T04:11:51;99711.94;;;17.05;57.07
65553;BME280;52465;51.560;14.368;2023-05-15T04:14:17;99688.63;;;16.95;56.96
65553;BME280;52465;51.560;14.368;2023-05-15T04:16:42;99706.28;;;17.01;57.07
65553;BME280;52465;51.560;14.368;2023-05-15T04:19:08;99699.34;;;17.00;57.25
65553;BME280;52465;51.560;14.368;2023-05-15T04:21:33;99701.00;;;17.01;56.96
65553;BME280;52465;51.560;14.368;2023-05-15T04:23:59;99703.41;;;17.03;56.96
65553;BME280;52465;51.560;14.368;2023-05-15T04:26:27;99695.69;;;17.01;57.13
65553;BME280;52465;51.560;14.368;2023-05-15T04:28:53;99690.41;;;17.01;57.15
65553;BME280;52465;51.560;14.368;2023-05-15T04:31:20;99673.97;;;16.92;57.12
65553;BME280;52465;51.560;14.368;2023-05-15T04:33:46;99670.31;;;16.93;57.02
65553;BME280;52465;51.560;14.368;2023-05-15T04:36:12;99675.53;;;17.00;57.18
65553;BME280;52465;51.560;14.368;2023-05-15T04:38:37;99657.94;;;16.87;57.04
65553;BME280;52465;51.560;14.368;2023-05-15T04:41:02;99665.19;;;16.99;57.15
65553;BME280;52465;51.560;14.368;2023-05-15T04:43:28;99652.00;;;16.92;57.00
65553;BME280;52465;51.560;14.368;2023-05-15T04:45:54;99637.19;;;16.91;57.09
65553;BME280;52465;51.560;14.368;2023-05-15T04:48:20;99645.66;;;17.00;56.97
65553;BME280;52465;51.560;14.368;2023-05-15T04:50:45;99627.34;;;16.98;57.07
65553;BME280;52465;51.560;14.368;2023-05-15T04:53:10;99622.88;;;16.99;57.07
65553;BME280;52465;51.560;14.368;2023-05-15T04:55:37;99618.44;;;16.92;57.06
65553;BME280;52465;51.560;14.368;2023-05-15T04:58:03;99617.63;;;16.92;57.23
65553;BME280;52465;51.560;14.368;2023-05-15T05:00:28;99624.53;;;16.93;57.12
65553;BME280;52465;51.560;14.368;2023-05-15T05:02:55;99628.81;;;16.94;57.25
65553;BME280;52465;51.560;14.368;2023-05-15T05:05:20;99626.78;;;16.96;57.15
65553;BME280;52465;51.560;14.368;2023-05-15T05:07:45;99622.13;;;16.91;57.26
65553;BME280;52465;51.560;14.368;2023-05-15T05:10:11;99622.50;;;16.95;57.26
65553;BME280;52465;51.560;14.368;2023-05-15T05:12:37;99620.88;;;16.94;57.23
65553;BME280;52465;51.560;14.368;2023-05-15T05:15:02;99611.38;;;16.86;57.40
65553;BME280;52465;51.560;14.368;2023-05-15T05:17:29;99605.69;;;16.83;57.14
65553;BME280;52465;51.560;14.368;2023-05-15T05:19:55;99595.91;;;16.90;57.29
65553;BME280;52465;51.560;14.368;2023-05-15T05:22:20;99610.50;;;16.92;57.08
65553;BME280;52465;51.560;14.368;2023-05-15T05:24:46;99589.25;;;16.81;57.32
65553;BME280;52465;51.560;14.368;2023-05-15T05:27:11;99604.47;;;16.85;57.13
65553;BME280;52465;51.560;14.368;2023-05-15T05:29:37;99609.72;;;16.92;57.33
65553;BME280;52465;51.560;14.368;2023-05-15T05:32:04;99609.50;;;16.93;57.31
65553;BME280;52465;51.560;14.368;2023-05-15T05:34:31;99581.31;;;16.81;57.05
65553;BME280;52465;51.560;14.368;2023-05-15T05:36:56;99582.34;;;16.80;57.23
65553;BME280;52465;51.560;14.368;2023-05-15T05:39:21;99601.78;;;16.92;57.40
65553;BME280;52465;51.560;14.368;2023-05-15T05:41:47;99604.41;;;16.92;57.23
65553;BME280;52465;51.560;14.368;2023-05-15T05:44:12;99588.84;;;16.77;57.23
65553;BME280;52465;51.560;14.368;2023-05-15T05:46:38;99600.56;;;16.88;57.46
65553;BME280;52465;51.560;14.368;2023-05-15T05:49:03;99581.94;;;16.76;57.21
65553;BME280;52465;51.560;14.368;2023-05-15T05:51:29;99592.91;;;16.80;57.24
65553;BME280;52465;51.560;14.368;2023-05-15T05:53:55;99597.34;;;16.86;57.38
65553;BME280;52465;51.560;14.368;2023-05-15T05:56:21;99599.75;;;16.87;57.36
65553;BME280;52465;51.560;14.368;2023-05-15T05:58:46;99579.91;;;16.78;57.08
65553;BME280;52465;51.560;14.368;2023-05-15T06:01:12;99594.88;;;16.91;57.35
65553;BME280;52465;51.560;14.368;2023-05-15T06:03:38;99585.53;;;16.88;57.22
65553;BME280;52465;51.560;14.368;2023-05-15T06:06:06;99589.81;;;16.89;57.50
65553;BME280;52465;51.560;14.368;2023-05-15T06:08:31;99566.09;;;16.76;57.36
65553;BME280;52465;51.560;14.368;2023-05-15T06:10:57;99584.53;;;16.89;57.21
65553;BME280;52465;51.560;14.368;2023-05-15T06:13:22;99557.56;;;16.74;57.41
65553;BME280;52465;51.560;14.368;2023-05-15T06:15:47;99582.06;;;16.88;57.29
65553;BME280;52465;51.560;14.368;2023-05-15T06:18:13;99561.81;;;16.75;57.16
65553;BME280;52465;51.560;14.368;2023-05-15T06:20:38;99572.97;;;16.84;57.41
65553;BME280;52465;51.560;14.368;2023-05-15T06:23:04;99578.41;;;16.89;57.46
65553;BME280;52465;51.560;14.368;2023-05-15T06:25:31;99575.38;;;16.85;57.49
65553;BME280;52465;51.560;14.368;2023-05-15T06:27:57;99562.06;;;16.74;57.26
65553;BME280;52465;51.560;14.368;2023-05-15T06:30:24;99569.28;;;16.85;57.38
65553;BME280;52465;51.560;14.368;2023-05-15T06:32:50;99572.75;;;16.85;57.54
65553;BME280;52465;51.560;14.368;2023-05-15T06:35:15;99566.66;;;16.85;57.23
65553;BME280;52465;51.560;14.368;2023-05-15T06:37:41;99566.03;;;16.83;57.28
65553;BME280;52465;51.560;14.368;2023-05-15T06:40:06;99568.84;;;16.88;57.47
65553;BME280;52465;51.560;14.368;2023-05-15T06:42:32;99563.19;;;16.84;57.36
65553;BME280;52465;51.560;14.368;2023-05-15T06:44:57;99575.97;;;16.87;57.53
65553;BME280;52465;51.560;14.368;2023-05-15T06:47:23;99559.56;;;16.79;57.47
65553;BME280;52465;51.560;14.368;2023-05-15T06:49:49;99552.88;;;16.76;57.35
65553;BME280;52465;51.560;14.368;2023-05-15T06:52:14;99575.16;;;16.87;57.55
65553;BME280;52465;51.560;14.368;2023-05-15T06:54:39;99553.69;;;16.77;57.57
65553;BME280;52465;51.560;14.368;2023-05-15T06:57:09;99564.00;;;16.85;57.51
65553;BME280;52465;51.560;14.368;2023-05-15T06:59:35;99557.91;;;16.84;57.33
65553;BME280;52465;51.560;14.368;2023-05-15T07:02:01;99549.75;;;16.86;57.43
65553;BME280;52465;51.560;14.368;2023-05-15T07:04:27;99550.00;;;16.78;57.77
65553;BME280;52465;51.560;14.368;2023-05-15T07:06:53;99547.34;;;16.84;57.59
65553;BME280;52465;51.560;14.368;2023-05-15T07:09:18;99549.00;;;16.79;57.49
65553;BME280;52465;51.560;14.368;2023-05-15T07:11:44;99552.81;;;16.83;57.19
65553;BME280;52465;51.560;14.368;2023-05-15T07:14:10;99552.63;;;16.84;57.50
65553;BME280;52465;51.560;14.368;2023-05-15T07:16:35;99549.59;;;16.81;57.52
65553;BME280;52465;51.560;14.368;2023-05-15T07:19:00;99540.63;;;16.82;57.47
65553;BME280;52465;51.560;14.368;2023-05-15T07:21:27;99542.47;;;16.81;57.67
65553;BME280;52465;51.560;14.368;2023-05-15T07:23:52;99539.59;;;16.83;57.60
65553;BME280;52465;51.560;14.368;2023-05-15T07:26:18;99527.69;;;16.74;57.66
65553;BME280;52465;51.560;14.368;2023-05-15T07:28:43;99534.31;;;16.83;57.46
65553;BME280;52465;51.560;14.368;2023-05-15T07:31:11;99526.81;;;16.80;57.47
65553;BME280;52465;51.560;14.368;2023-05-15T07:33:37;99530.06;;;16.82;57.54
65553;BME280;52465;51.560;14.368;2023-05-15T07:36:02;99520.50;;;16.81;57.50
65553;BME280;52465;51.560;14.368;2023-05-15T07:38:28;99523.75;;;16.83;57.67
65553;BME280;52465;51.560;14.368;2023-05-15T07:40:53;99506.53;;;16.74;57.41
65553;BME280;52465;51.560;14.368;2023-05-15T07:43:19;99513.00;;;16.78;57.69
65553;BME280;52465;51.560;14.368;2023-05-15T07:45:44;99507.13;;;16.76;57.69
65553;BME280;52465;51.560;14.368;2023-05-15T07:50:47;99516.84;;;16.82;57.84
65553;BME280;52465;51.560;14.368;2023-05-15T07:53:13;99504.31;;;16.71;57.82
65553;BME280;52465;51.560;14.368;2023-05-15T07:55:41;99514.03;;;16.77;57.80
65553;BME280;52465;51.560;14.368;2023-05-15T07:58:07;99532.69;;;16.82;57.84
65553;BME280;52465;51.560;14.368;2023-05-15T08:00:33;99515.63;;;16.78;57.69
65553;BME280;52465;51.560;14.368;2023-05-15T08:03:01;99529.03;;;16.83;57.67
65553;BME280;52465;51.560;14.368;2023-05-15T08:05:27;99521.72;;;16.85;57.62
65553;BME280;52465;51.560;14.368;2023-05-15T08:07:53;99519.47;;;16.82;57.69
65553;BME280;52465;51.560;14.368;2023-05-15T08:10:19;99515.63;;;16.78;57.79
65553;BME280;52465;51.560;14.368;2023-05-15T08:12:44;99515.63;;;16.78;57.62
65553;BME280;52465;51.560;14.368;2023-05-15T08:15:11;99526.38;;;16.83;57.79
65553;BME280;52465;51.560;14.368;2023-05-15T08:17:37;99520.28;;;16.82;57.70
65553;BME280;52465;51.560;14.368;2023-05-15T08:20:03;99505.72;;;16.73;57.79
65553;BME280;52465;51.560;14.368;2023-05-15T08:22:29;99525.38;;;16.84;57.62
65553;BME280;52465;51.560;14.368;2023-05-15T08:24:55;99517.28;;;16.79;58.03
65553;BME280;52465;51.560;14.368;2023-05-15T08:27:20;99519.47;;;16.82;57.59
65553;BME280;52465;51.560;14.368;2023-05-15T08:29:48;99512.41;;;16.76;57.77
65553;BME280;52465;51.560;14.368;2023-05-15T08:32:17;99513.00;;;16.78;57.85
65553;BME280;52465;51.560;14.368;2023-05-15T08:34:42;99520.91;;;16.84;57.47
65553;BME280;52465;51.560;14.368;2023-05-15T08:37:07;99526.38;;;16.83;57.81
65553;BME280;52465;51.560;14.368;2023-05-15T08:39:33;99514.47;;;16.74;57.76
65553;BME280;52465;51.560;14.368;2023-05-15T08:42:14;99521.09;;;16.83;57.60
65553;BME280;52465;51.560;14.368;2023-05-15T08:44:43;99519.69;;;16.80;57.46
65553;BME280;52465;51.560;14.368;2023-05-15T08:47:09;99522.75;;;16.84;57.73
65553;BME280;52465;51.560;14.368;2023-05-15T08:49:59;99515.22;;;16.81;57.69
65553;BME280;52465;51.560;14.368;2023-05-15T08:52:29;99514.41;;;16.80;57.72
65553;BME280;52465;51.560;14.368;2023-05-15T08:54:54;99513.38;;;16.81;57.76
65553;BME280;52465;51.560;14.368;2023-05-15T08:57:20;99515.22;;;16.81;57.81
65553;BME280;52465;51.560;14.368;2023-05-15T08:59:45;99513.38;;;16.81;57.72
65553;BME280;52465;51.560;14.368;2023-05-15T09:02:12;99507.28;;;16.81;57.59
65553;BME280;52465;51.560;14.368;2023-05-15T09:04:38;99492.88;;;16.77;57.76
65553;BME280;52465;51.560;14.368;2023-05-15T09:07:04;99492.53;;;16.73;57.54
65553;BME280;52465;51.560;14.368;2023-05-15T09:09:49;99498.09;;;16.83;57.56
65553;BME280;52465;51.560;14.368;2023-05-15T09:12:15;99500.56;;;16.85;57.61
65553;BME280;52465;51.560;14.368;2023-05-15T09:14:44;99505.03;;;16.84;57.63
65553;BME280;52465;51.560;14.368;2023-05-15T09:17:10;99506.66;;;16.85;57.48
65553;BME280;52465;51.560;14.368;2023-05-15T09:19:38;99501.38;;;16.85;57.60
65553;BME280;52465;51.560;14.368;2023-05-15T09:22:18;99500.56;;;16.85;57.79
65553;BME280;52465;51.560;14.368;2023-05-15T09:24:48;99499.13;;;16.82;57.79
65553;BME280;52465;51.560;14.368;2023-05-15T09:27:16;99498.56;;;16.80;57.70
65553;BME280;52465;51.560;14.368;2023-05-15T09:29:42;99502.00;;;16.81;57.71
65553;BME280;52465;51.560;14.368;2023-05-15T09:32:10;99508.25;;;16.86;57.69
65553;BME280;52465;51.560;14.368;2023-05-15T09:34:39;99514.34;;;16.87;57.63
65553;BME280;52465;51.560;14.368;2023-05-15T09:37:06;99509.06;;;16.87;57.50
65553;BME280;52465;51.560;14.368;2023-05-15T09:39:32;99494.50;;;16.78;57.42
65553;BME280;52465;51.560;14.368;2023-05-15T09:42:10;99501.38;;;16.85;57.70
65553;BME280;52465;51.560;14.368;2023-05-15T09:44:42;99500.97;;;16.82;57.56
65553;BME280;52465;51.560;14.368;2023-05-15T09:47:11;99503.78;;;16.87;57.67
65553;BME280;52465;51.560;14.368;2023-05-15T09:49:37;99504.81;;;16.86;57.62
65553;BME280;52465;51.560;14.368;2023-05-15T09:52:06;99511.72;;;16.87;57.64
65553;BME280;52465;51.560;14.368;2023-05-15T09:54:36;99494.88;;;16.81;57.57
65553;BME280;52465;51.560;14.368;2023-05-15T09:57:11;99501.94;;;16.87;57.55
65553;BME280;52465;51.560;14.368;2023-05-15T09:59:44;99491.66;;;16.79;57.75
65553;BME280;52465;51.560;14.368;2023-05-15T10:02:25;99479.88;;;16.75;57.72
65553;BME280;52465;51.560;14.368;2023-05-15T10:04:56;99505.41;;;16.88;57.63
65553;BME280;52465;51.560;14.368;2023-05-15T10:07:31;99507.22;;;16.87;57.70
65553;BME280;52465;51.560;14.368;2023-05-15T10:09:57;99508.84;;;16.88;57.50
65553;BME280;52465;51.560;14.368;2023-05-15T10:12:23;99490.03;;;16.78;57.66
65553;BME280;52465;51.560;14.368;2023-05-15T10:14:50;99511.50;;;16.88;57.69
65553;BME280;52465;51.560;14.368;2023-05-15T10:17:18;99507.00;;;16.89;57.82
65553;BME280;52465;51.560;14.368;2023-05-15T10:19:44;99487.53;;;16.83;57.60
65553;BME280;52465;51.560;14.368;2023-05-15T10:22:11;99486.56;;;16.78;57.52
65553;BME280;52465;51.560;14.368;2023-05-15T10:24:42;99497.69;;;16.86;57.77
65553;BME280;52465;51.560;14.368;2023-05-15T10:27:09;99478.06;;;16.76;57.76
65553;BME280;52465;51.560;14.368;2023-05-15T10:29:36;99494.63;;;16.89;57.61
65553;BME280;52465;51.560;14.368;2023-05-15T10:32:02;99485.91;;;16.82;57.75
65553;BME280;52465;51.560;14.368;2023-05-15T10:34:31;99490.34;;;16.88;57.86
65553;BME280;52465;51.560;14.368;2023-05-15T10:36:58;99486.31;;;16.86;57.76
65553;BME280;52465;51.560;14.368;2023-05-15T10:39:44;99480.22;;;16.85;57.75
65553;BME280;52465;51.560;14.368;2023-05-15T10:42:11;99483.22;;;16.89;57.75
65553;BME280;52465;51.560;14.368;2023-05-15T10:44:37;99482.41;;;16.88;57.71
65553;BME280;52465;51.560;14.368;2023-05-15T10:47:03;99475.72;;;16.86;57.65
65553;BME280;52465;51.560;14.368;2023-05-15T10:49:28;99479.34;;;16.91;57.59
65553;BME280;52465;51.560;14.368;2023-05-15T10:51:54;99476.13;;;16.89;57.73
65553;BME280;52465;51.560;14.368;2023-05-15T10:54:21;99471.03;;;16.88;57.84
65553;BME280;52465;51.560;14.368;2023-05-15T10:56:46;99464.78;;;16.82;57.79
65553;BME280;52465;51.560;14.368;2023-05-15T10:59:12;99465.16;;;16.86;58.01
65553;BME280;52465;51.560;14.368;2023-05-15T11:01:39;99475.50;;;16.87;57.63
65553;BME280;52465;51.560;14.368;2023-05-15T11:04:10;99479.34;;;16.91;57.66
65553;BME280;52465;51.560;14.368;2023-05-15T11:06:37;99474.47;;;16.88;57.53
65553;BME280;52465;51.560;14.368;2023-05-15T11:11:54;99478.53;;;16.91;57.64
65553;BME280;52465;51.560;14.368;2023-05-15T11:14:22;99471.19;;;16.93;57.77
65553;BME280;52465;51.560;14.368;2023-05-15T11:21:57;99452.75;;;16.86;57.62
65553;BME280;52465;51.560;14.368;2023-05-15T11:24:32;99464.28;;;16.92;57.62
65553;BME280;52465;51.560;14.368;2023-05-15T11:27:12;99465.91;;;16.93;57.65
65553;BME280;52465;51.560;14.368;2023-05-15T11:30:19;99457.16;;;16.92;57.59
65553;BME280;52465;51.560;14.368;2023-05-15T11:35:21;99465.91;;;16.93;57.64
65553;BME280;52465;51.560;14.368;2023-05-15T11:37:50;99450.03;;;16.93;57.62
65553;BME280;52465;51.560;14.368;2023-05-15T11:40:20;99463.25;;;16.93;57.72
65553;BME280;52465;51.560;14.368;2023-05-15T11:45:24;99426.38;;;16.80;57.56
65553;BME280;52465;51.560;14.368;2023-05-15T11:47:50;99439.31;;;16.88;57.60
65553;BME280;52465;51.560;14.368;2023-05-15T11:50:15;99440.06;;;16.95;57.58
65553;BME280;52465;51.560;14.368;2023-05-15T11:52:41;99434.78;;;16.95;57.53
65553;BME280;52465;51.560;14.368;2023-05-15T11:55:07;99428.66;;;16.95;57.54
65553;BME280;52465;51.560;14.368;2023-05-15T11:57:36;99427.50;;;16.90;57.60
65553;BME280;52465;51.560;14.368;2023-05-15T12:00:02;99440.66;;;16.97;57.61
65553;BME280;52465;51.560;14.368;2023-05-15T12:02:28;99432.94;;;16.96;57.74
65553;BME280;52465;51.560;14.368;2023-05-15T12:04:53;99415.75;;;16.86;57.47
65553;BME280;52465;51.560;14.368;2023-05-15T12:07:19;99417.56;;;16.86;57.85
65553;BME280;52465;51.560;14.368;2023-05-15T12:09:51;99425.22;;;16.94;57.61
65553;BME280;52465;51.560;14.368;2023-05-15T12:12:17;99416.69;;;16.92;57.78
65553;BME280;52465;51.560;14.368;2023-05-15T12:14:42;99426.19;;;17.00;57.74
65553;BME280;52465;51.560;14.368;2023-05-15T12:17:08;99411.63;;;16.90;57.71
65553;BME280;52465;51.560;14.368;2023-05-15T12:19:34;99422.72;;;16.99;57.58
65553;BME280;52465;51.560;14.368;2023-05-15T12:22:03;99409.50;;;16.99;57.51
65553;BME280;52465;51.560;14.368;2023-05-15T12:24:31;99410.16;;;16.95;57.55
65553;BME280;52465;51.560;14.368;2023-05-15T12:26:57;99403.72;;;16.90;57.51
65553;BME280;52465;51.560;14.368;2023-05-15T12:29:25;99400.84;;;16.92;57.49
65553;BME280;52465;51.560;14.368;2023-05-15T12:31:50;99405.69;;;16.95;57.64
65553;BME280;52465;51.560;14.368;2023-05-15T12:34:19;99414.22;;;16.97;57.66
65553;BME280;52465;51.560;14.368;2023-05-15T12:36:44;99401.41;;;16.94;57.48
65553;BME280;52465;51.560;14.368;2023-05-15T12:39:10;99412.38;;;16.98;57.55
65553;BME280;52465;51.560;14.368;2023-05-15T12:41:36;99390.50;;;16.90;57.54
65553;BME280;52465;51.560;14.368;2023-05-15T12:44:03;99416.63;;;16.99;57.44
65553;BME280;52465;51.560;14.368;2023-05-15T12:46:30;99391.13;;;16.86;57.53
65553;BME280;52465;51.560;14.368;2023-05-15T12:48:57;99395.94;;;16.96;57.64
65553;BME280;52465;51.560;14.368;2023-05-15T12:51:23;99395.31;;;16.93;57.40
65553;BME280;52465;51.560;14.368;2023-05-15T12:53:51;99396.81;;;16.89;57.36
65553;BME280;52465;51.560;14.368;2023-05-15T12:56:17;99375.44;;;16.91;57.46
65553;BME280;52465;51.560;14.368;2023-05-15T12:58:42;99384.75;;;16.93;57.39
65553;BME280;52465;51.560;14.368;2023-05-15T13:01:08;99381.69;;;16.97;57.40
65553;BME280;52465;51.560;14.368;2023-05-15T13:03:33;99391.00;;;16.99;57.60
65553;BME280;52465;51.560;14.368;2023-05-15T13:06:01;99378.56;;;17.00;57.41
65553;BME280;52465;51.560;14.368;2023-05-15T13:08:27;99382.03;;;17.00;57.36
65553;BME280;52465;51.560;14.368;2023-05-15T13:10:58;99383.88;;;17.00;57.51
65553;BME280;52465;51.560;14.368;2023-05-15T13:13:23;99384.66;;;17.00;57.53
65553;BME280;52465;51.560;14.368;2023-05-15T13:15:49;99376.75;;;17.00;57.15
65553;BME280;52465;51.560;14.368;2023-05-15T13:18:16;99375.94;;;17.00;57.46
65553;BME280;52465;51.560;14.368;2023-05-15T13:20:48;99371.31;;;16.95;57.31